Time;durP1;ratioP1;P1;durP2;ratioP2;P2;SDS_P1;SDS_P2;PMS_P1;PMS_P2;Temp;Humidity;BMP_temperature;BMP_pressure;BME280_temperature;BME280_humidity;BME280_pressure;Samples;Min_cycle;Max_cycle;Signal;HPM_P1;HPM_P2
2022/05/23 00:00:49;;;;;;;6.05;2.90;;;14.10;99.90;;;;;;5016027;28;20045;-84
2022/05/23 00:03:15;;;;;;;5.28;2.83;;;14.00;99.90;;;;;;5013936;28;20478;-83
2022/05/23 00:05:41;;;;;;;5.95;2.75;;;14.00;99.90;;;;;;5013707;28;20068;-83
2022/05/23 00:08:06;;;;;;;9.55;3.47;;;14.00;99.90;;;;;;4997074;28;20041;-83
2022/05/23 00:10:32;;;;;;;5.57;2.53;;;13.90;99.90;;;;;;4995852;28;20042;-85
2022/05/23 00:12:58;;;;;;;4.57;2.70;;;13.90;99.90;;;;;;4996294;28;20042;-84
2022/05/23 00:15:24;;;;;;;3.67;2.40;;;13.90;99.90;;;;;;5013471;28;20041;-84
2022/05/23 00:17:50;;;;;;;7.07;2.85;;;13.80;99.90;;;;;;4996072;28;20050;-85
2022/05/23 00:20:22;;;;;;;5.38;2.50;;;13.90;99.90;;;;;;5013244;28;20053;-85
2022/05/23 00:22:47;;;;;;;5.75;2.85;;;13.80;99.90;;;;;;4998552;28;20053;-85
2022/05/23 00:25:14;;;;;;;4.22;2.53;;;13.70;99.90;;;;;;4999466;28;20045;-85
2022/05/23 00:27:42;;;;;;;6.60;2.78;;;13.70;99.90;;;;;;5017264;28;20081;-85
2022/05/23 00:30:11;;;;;;;5.10;2.60;;;13.70;99.90;;;;;;4999391;28;20042;-84
2022/05/23 00:35:22;;;;;;;6.80;2.63;;;13.70;99.90;;;;;;5016622;28;20508;-85
2022/05/23 00:37:49;;;;;;;5.70;2.42;;;13.70;99.90;;;;;;4999191;28;20054;-85
2022/05/23 00:40:28;;;;;;;5.15;2.60;;;13.70;99.90;;;;;;4999105;28;20078;-84
2022/05/23 00:43:14;;;;;;;6.05;2.60;;;13.70;99.90;;;;;;4999116;28;20053;-85
2022/05/23 00:45:45;;;;;;;8.43;2.83;;;13.70;99.90;;;;;;4998921;28;20050;-85
2022/05/23 00:48:12;;;;;;;6.65;2.80;;;13.80;99.90;;;;;;5016784;28;20371;-85
2022/05/23 00:50:41;;;;;;;4.93;2.60;;;13.90;99.90;;;;;;4998900;28;20046;-85
2022/05/23 00:53:09;;;;;;;5.40;2.92;;;13.80;99.90;;;;;;5016721;28;20497;-86
2022/05/23 00:55:42;;;;;;;5.63;2.80;;;13.80;99.90;;;;;;4999274;28;20374;-85
2022/05/23 00:58:13;;;;;;;5.03;2.70;;;13.80;99.90;;;;;;4998808;28;20478;-85
2022/05/23 01:00:44;;;;;;;5.93;2.60;;;14.10;99.90;;;;;;5016513;28;20128;-84
2022/05/23 01:03:14;;;;;;;3.88;2.20;;;13.90;99.90;;;;;;4998848;28;20482;-85
2022/05/23 01:05:40;;;;;;;3.97;2.22;;;13.90;99.90;;;;;;4998848;28;20046;-85
2022/05/23 01:08:06;;;;;;;4.05;2.67;;;13.80;99.90;;;;;;5016285;28;20096;-85
2022/05/23 01:10:35;;;;;;;6.20;2.75;;;13.80;99.90;;;;;;4999272;28;20084;-85
2022/05/23 01:13:00;;;;;;;4.45;2.60;;;13.90;99.90;;;;;;5016119;28;20054;-84
2022/05/23 01:15:28;;;;;;;5.82;2.40;;;13.90;99.90;;;;;;4998549;28;20068;-84
2022/05/23 01:17:57;;;;;;;6.30;2.33;;;13.90;99.90;;;;;;4998563;28;20042;-85
2022/05/23 01:20:23;;;;;;;5.90;2.47;;;13.90;99.90;;;;;;5016169;28;20065;-85
2022/05/23 01:23:11;;;;;;;3.67;2.42;;;13.90;99.90;;;;;;4998408;28;20100;-85
2022/05/23 01:25:43;;;;;;;5.75;2.40;;;13.90;99.90;;;;;;4998329;28;20469;-85
2022/05/23 01:28:11;;;;;;;3.30;2.30;;;13.90;99.90;;;;;;4982906;28;20046;-85
2022/05/23 01:30:39;;;;;;;5.43;2.70;;;14.00;99.90;;;;;;4998293;28;20046;-85
2022/05/23 01:33:05;;;;;;;8.32;2.50;;;13.90;99.90;;;;;;4997355;28;20073;-85
2022/05/23 01:35:31;;;;;;;6.35;2.40;;;13.90;99.90;;;;;;4997942;28;20088;-85
2022/05/23 01:37:56;;;;;;;4.57;2.42;;;13.90;99.90;;;;;;4998193;28;20052;-84
2022/05/23 01:40:22;;;;;;;4.18;2.28;;;13.90;99.90;;;;;;5016091;28;20085;-85
2022/05/23 01:42:49;;;;;;;5.32;2.60;;;13.90;99.90;;;;;;4998103;28;20048;-85
2022/05/23 01:45:17;;;;;;;6.60;2.60;;;13.90;99.90;;;;;;4998003;28;20049;-85
2022/05/23 01:47:49;;;;;;;5.72;2.38;;;13.90;99.90;;;;;;4998079;28;20066;-85
2022/05/23 01:50:15;;;;;;;5.07;2.40;;;14.00;99.90;;;;;;4997925;28;20042;-85
2022/05/23 01:52:41;;;;;;;5.05;2.70;;;13.90;99.90;;;;;;4997803;28;20482;-85
2022/05/23 01:55:07;;;;;;;4.03;2.40;;;13.90;99.90;;;;;;5015592;28;20058;-85
2022/05/23 01:57:33;;;;;;;4.60;2.25;;;13.90;99.90;;;;;;5015311;28;20091;-84
2022/05/23 02:02:50;;;;;;;7.68;2.92;;;13.80;99.90;;;;;;4997283;28;20054;-85
2022/05/23 02:05:16;;;;;;;5.75;2.42;;;13.80;99.90;;;;;;5015417;28;20507;-85
2022/05/23 02:07:42;;;;;;;5.53;2.47;;;13.90;99.90;;;;;;4997510;28;20169;-85
2022/05/23 02:10:09;;;;;;;5.22;2.83;;;13.80;99.90;;;;;;4997647;28;20077;-85
2022/05/23 02:12:35;;;;;;;5.00;2.42;;;13.80;99.90;;;;;;5009466;28;20030;-85
2022/05/23 02:15:01;;;;;;;4.35;2.70;;;13.70;99.90;;;;;;5013405;28;20045;-85
2022/05/23 02:17:27;;;;;;;4.70;2.40;;;13.70;99.90;;;;;;4997717;28;20100;-85
2022/05/23 02:19:53;;;;;;;7.93;2.50;;;13.70;99.90;;;;;;4981175;28;20479;-85
2022/05/23 02:22:18;;;;;;;6.18;2.70;;;13.60;99.90;;;;;;5014961;28;20046;-85
2022/05/23 02:24:44;;;;;;;6.10;2.63;;;13.60;99.90;;;;;;5015013;28;20049;-85
2022/05/23 02:27:10;;;;;;;4.72;2.40;;;13.50;99.90;;;;;;5014912;28;20061;-85
2022/05/23 02:29:36;;;;;;;4.78;2.63;;;13.50;99.90;;;;;;4997190;28;20477;-85
2022/05/23 02:32:05;;;;;;;7.07;2.80;;;13.40;99.90;;;;;;5014966;28;20056;-85
2022/05/23 02:34:30;;;;;;;5.28;2.58;;;13.40;99.90;;;;;;4997036;28;20449;-85
2022/05/23 02:36:56;;;;;;;5.90;2.80;;;13.80;99.90;;;;;;4997043;28;20054;-85
2022/05/23 02:39:22;;;;;;;5.75;2.72;;;13.30;99.90;;;;;;4997193;28;20053;-85
2022/05/23 02:41:47;;;;;;;8.90;3.10;;;13.30;99.90;;;;;;4997248;28;20042;-85
2022/05/23 02:44:13;;;;;;;5.15;2.70;;;13.40;99.90;;;;;;4996585;28;20080;-85
2022/05/23 02:46:38;;;;;;;5.75;2.92;;;13.30;99.90;;;;;;4996909;28;20042;-84
2022/05/23 02:49:06;;;;;;;5.05;2.63;;;13.20;99.90;;;;;;4980698;28;20045;-85
2022/05/23 02:51:32;;;;;;;5.20;2.33;;;13.20;99.90;;;;;;5014499;28;20049;-84
2022/05/23 02:53:58;;;;;;;4.07;2.60;;;13.20;99.90;;;;;;4996671;28;20054;-85
2022/05/23 02:56:23;;;;;;;5.80;2.90;;;13.20;99.90;;;;;;5014471;28;20398;-84
2022/05/23 02:58:49;;;;;;;6.97;2.67;;;13.10;99.90;;;;;;5014406;28;20050;-83
2022/05/23 03:01:15;;;;;;;4.78;2.63;;;13.10;99.90;;;;;;5014281;28;20073;-83
2022/05/23 03:03:41;;;;;;;5.35;2.58;;;13.10;99.90;;;;;;5014360;28;20081;-83
2022/05/23 03:06:08;;;;;;;4.75;2.72;;;13.00;99.90;;;;;;4996682;28;20049;-83
2022/05/23 03:08:34;;;;;;;7.65;3.10;;;13.00;99.90;;;;;;5014492;28;20045;-83
2022/05/23 03:11:02;;;;;;;5.68;2.70;;;13.00;99.90;;;;;;5017452;28;20053;-83
2022/05/23 03:13:29;;;;;;;4.50;2.80;;;13.20;99.90;;;;;;4996918;28;20096;-83
2022/05/23 03:15:55;;;;;;;6.20;2.58;;;12.90;99.90;;;;;;5014137;28;20401;-83
2022/05/23 03:18:22;;;;;;;5.25;2.95;;;13.00;99.90;;;;;;5014001;28;20049;-83
2022/05/23 03:21:01;;;;;;;5.00;2.58;;;13.00;99.90;;;;;;4997043;28;20058;-84
2022/05/23 03:29:00;;;;;;;5.15;2.80;;;13.00;99.90;;;;;;4972718;28;20063;-83
2022/05/23 03:31:27;;;;;;;6.15;2.72;;;12.90;99.90;;;;;;4973381;28;20542;-84
2022/05/23 03:33:53;;;;;;;4.55;2.58;;;12.90;99.90;;;;;;4972738;28;20055;-84
2022/05/23 03:36:20;;;;;;;7.47;2.88;;;12.90;99.90;;;;;;4956542;28;20059;-83
2022/05/23 03:38:45;;;;;;;5.88;2.45;;;12.90;99.90;;;;;;4956734;28;20043;-84
2022/05/23 03:41:11;;;;;;;6.68;2.80;;;12.80;99.90;;;;;;4958339;28;20582;-83
2022/05/23 03:43:37;;;;;;;6.97;3.00;;;12.80;99.90;;;;;;4941056;28;20538;-83
2022/05/23 03:46:05;;;;;;;6.20;2.92;;;12.80;99.90;;;;;;4972542;28;20051;-84
2022/05/23 03:48:31;;;;;;;7.43;3.10;;;12.80;99.90;;;;;;4973155;28;20569;-84
2022/05/23 03:50:56;;;;;;;5.10;3.30;;;12.70;99.90;;;;;;4956503;28;20043;-84
2022/05/23 03:53:22;;;;;;;5.65;3.20;;;12.70;99.90;;;;;;4956491;28;20063;-83
2022/05/23 03:55:51;;;;;;;5.05;3.03;;;12.70;99.90;;;;;;4956615;28;20050;-84
2022/05/23 03:58:17;;;;;;;5.88;2.90;;;12.60;99.90;;;;;;4960301;28;20051;-83
2022/05/23 04:00:46;;;;;;;4.68;2.80;;;12.70;99.90;;;;;;4960315;28;20530;-84
2022/05/23 04:03:12;;;;;;;5.07;2.92;;;12.70;99.90;;;;;;4976263;28;20066;-83
2022/05/23 04:05:40;;;;;;;7.13;2.97;;;12.60;99.90;;;;;;4990217;28;20058;-83
2022/05/23 04:08:06;;;;;;;4.68;2.72;;;12.60;99.90;;;;;;5000815;28;20053;-84
2022/05/23 04:10:32;;;;;;;4.93;2.90;;;12.60;99.90;;;;;;4999889;28;20054;-83
2022/05/23 04:12:57;;;;;;;5.15;2.75;;;12.70;99.90;;;;;;4999790;28;20049;-84
2022/05/23 04:15:24;;;;;;;8.07;3.28;;;12.60;99.90;;;;;;4999725;28;20042;-83
2022/05/23 04:17:49;;;;;;;6.40;2.92;;;12.70;99.90;;;;;;4999881;28;20383;-85
2022/05/23 04:20:15;;;;;;;5.18;2.85;;;12.60;99.90;;;;;;4983428;28;20198;-83
2022/05/23 04:22:41;;;;;;;4.95;2.92;;;12.70;99.90;;;;;;5017187;28;20050;-83
2022/05/23 04:25:07;;;;;;;5.38;2.90;;;12.70;99.90;;;;;;4983358;28;20042;-83
2022/05/23 04:27:32;;;;;;;6.50;3.05;;;12.70;99.90;;;;;;4999847;28;20129;-83
2022/05/23 04:29:58;;;;;;;6.43;3.13;;;12.70;99.90;;;;;;5008866;28;20517;-83
2022/05/23 04:35:14;;;;;;;6.50;2.70;;;12.80;99.90;;;;;;5017039;28;20120;-83
2022/05/23 04:37:45;;;;;;;8.02;3.33;;;12.70;99.90;;;;;;4999620;28;20050;-83
2022/05/23 04:40:16;;;;;;;4.32;2.70;;;13.00;99.90;;;;;;4999435;28;20081;-84
2022/05/23 04:42:42;;;;;;;5.43;2.90;;;12.80;99.90;;;;;;5016953;28;20045;-84
2022/05/23 04:45:09;;;;;;;5.97;2.88;;;12.80;99.90;;;;;;4999160;28;20049;-83
2022/05/23 04:50:19;;;;;;;4.85;2.80;;;12.80;99.90;;;;;;4998962;28;20501;-84
2022/05/23 04:52:46;;;;;;;6.00;3.20;;;12.90;99.90;;;;;;5016741;28;20045;-83
2022/05/23 04:55:12;;;;;;;4.43;3.08;;;13.00;99.90;;;;;;5016720;28;20513;-83
2022/05/23 04:57:38;;;;;;;5.13;3.10;;;13.00;99.90;;;;;;5016518;28;20042;-84
2022/05/23 05:00:07;;;;;;;6.25;2.92;;;13.00;99.90;;;;;;4998872;28;20041;-83
2022/05/23 05:02:35;;;;;;;5.18;2.70;;;12.90;99.90;;;;;;5016368;28;20050;-84
2022/05/23 05:05:00;;;;;;;6.85;2.95;;;13.00;99.90;;;;;;5016424;28;20068;-83
2022/05/23 05:07:26;;;;;;;5.00;3.10;;;13.00;99.90;;;;;;4998620;28;20469;-84
2022/05/23 05:09:52;;;;;;;5.68;3.22;;;13.10;99.90;;;;;;4998926;28;20050;-84
2022/05/23 05:12:17;;;;;;;5.40;2.90;;;13.10;99.90;;;;;;5016453;28;20034;-84
2022/05/23 05:14:43;;;;;;;6.03;3.25;;;13.20;99.90;;;;;;5016346;28;20049;-84
2022/05/23 05:17:13;;;;;;;4.78;2.92;;;13.30;99.90;;;;;;4998676;28;20401;-83
2022/05/23 05:19:39;;;;;;;5.72;3.05;;;13.40;99.90;;;;;;4998684;28;20128;-84
2022/05/23 05:22:05;;;;;;;8.77;3.17;;;13.40;99.90;;;;;;5016144;28;20456;-84
2022/05/23 05:24:34;;;;;;;6.82;2.92;;;13.50;99.90;;;;;;4996056;28;20049;-83
2022/05/23 05:27:01;;;;;;;8.10;3.03;;;13.60;99.90;;;;;;5033136;28;20052;-84
2022/05/23 05:29:28;;;;;;;6.00;3.10;;;13.70;99.90;;;;;;5013674;28;20049;-83
2022/05/23 05:32:02;;;;;;;5.20;3.00;;;13.70;99.90;;;;;;4986514;28;20053;-83
2022/05/23 05:34:41;;;;;;;6.05;3.33;;;13.80;99.90;;;;;;4998555;28;20053;-85
2022/05/23 05:37:14;;;;;;;5.40;3.40;;;13.80;99.90;;;;;;4998555;28;20054;-84
2022/05/23 05:39:42;;;;;;;8.73;3.65;;;13.90;99.90;;;;;;5015828;28;20053;-84
2022/05/23 05:42:30;;;;;;;4.72;3.00;;;14.00;99.90;;;;;;4998100;28;20050;-83
2022/05/23 05:45:01;;;;;;;4.40;3.25;;;14.00;99.90;;;;;;5015749;28;20041;-83
2022/05/23 05:47:29;;;;;;;5.40;3.13;;;14.10;99.90;;;;;;4998155;28;20500;-85
2022/05/23 05:50:01;;;;;;;6.70;3.35;;;14.10;99.90;;;;;;4998116;28;20103;-84
2022/05/23 05:52:31;;;;;;;8.25;3.58;;;14.20;99.90;;;;;;5015340;28;20488;-83
2022/05/23 05:54:57;;;;;;;7.07;3.20;;;14.30;99.90;;;;;;5015467;28;20041;-83
2022/05/23 05:57:24;;;;;;;6.60;3.35;;;14.70;99.90;;;;;;4998072;28;20390;-83
2022/05/23 05:59:50;;;;;;;5.95;3.15;;;14.50;99.90;;;;;;5015510;28;20501;-84
2022/05/23 06:02:16;;;;;;;5.72;3.47;;;14.60;99.90;;;;;;4997573;28;20089;-85
2022/05/23 06:04:41;;;;;;;5.53;3.60;;;14.70;99.90;;;;;;4997661;28;20048;-89
2022/05/23 06:12:35;;;;;;;7.22;3.80;;;15.10;99.90;;;;;;4997644;28;20088;-85
2022/05/23 06:15:02;;;;;;;5.03;3.50;;;15.20;99.90;;;;;;4997901;28;20135;-87
2022/05/23 06:17:28;;;;;;;7.18;3.50;;;15.30;99.90;;;;;;4981428;28;20038;-89
2022/05/23 06:19:54;;;;;;;6.35;3.50;;;15.30;99.90;;;;;;4996880;28;20125;-88
2022/05/23 06:22:20;;;;;;;5.90;3.47;;;15.30;99.90;;;;;;4981230;28;20045;-87
2022/05/23 06:24:46;;;;;;;5.97;3.70;;;15.40;99.90;;;;;;4981063;28;20041;-88
2022/05/23 06:27:11;;;;;;;6.32;3.80;;;15.50;99.90;;;;;;4997611;28;20045;-91
2022/05/23 06:29:40;;;;;;;6.00;3.90;;;15.40;99.90;;;;;;4981970;28;20046;-86
2022/05/23 06:32:06;;;;;;;8.85;4.20;;;15.50;99.90;;;;;;5014936;28;20128;-84
2022/05/23 06:34:32;;;;;;;7.55;3.80;;;15.50;99.90;;;;;;5014467;28;20057;-84
2022/05/23 06:36:59;;;;;;;6.45;3.53;;;15.60;99.90;;;;;;4997041;28;20058;-84
2022/05/23 06:39:25;;;;;;;6.35;3.83;;;15.70;99.90;;;;;;4997070;28;20042;-84
2022/05/23 06:41:51;;;;;;;5.28;3.53;;;15.70;99.90;;;;;;5014704;28;20064;-84
2022/05/23 06:44:17;;;;;;;7.13;3.85;;;15.80;99.90;;;;;;5014565;28;20050;-84
2022/05/23 06:46:48;;;;;;;6.30;3.70;;;15.90;99.90;;;;;;5003121;28;20037;-84
2022/05/23 06:49:14;;;;;;;6.25;3.75;;;16.00;99.90;;;;;;5008553;28;20049;-84
2022/05/23 06:51:41;;;;;;;6.15;3.72;;;16.10;99.90;;;;;;4997332;28;20069;-83
2022/05/23 06:54:07;;;;;;;9.63;3.90;;;16.20;99.90;;;;;;4980800;28;20397;-84
2022/05/23 06:56:32;;;;;;;7.50;3.80;;;16.30;99.90;;;;;;4996952;28;20057;-85
2022/05/23 06:58:58;;;;;;;6.93;3.92;;;16.40;99.90;;;;;;5014405;28;20052;-84
2022/05/23 07:01:24;;;;;;;5.70;3.33;;;16.50;99.90;;;;;;4996788;28;20088;-84
2022/05/23 07:03:50;;;;;;;6.00;3.80;;;16.60;99.90;;;;;;4996693;28;20128;-85
2022/05/23 07:14:27;;;;;;;10.18;4.75;;;16.90;99.90;;;;;;5014202;28;20050;-83
2022/05/23 07:16:54;;;;;;;5.20;3.83;;;16.90;99.90;;;;;;4996431;28;20046;-84
2022/05/23 07:19:20;;;;;;;7.35;4.00;;;16.90;99.90;;;;;;5014258;28;20374;-84
2022/05/23 07:21:45;;;;;;;6.22;3.92;;;17.00;99.90;;;;;;4996620;28;20045;-85
2022/05/23 07:24:11;;;;;;;5.60;3.72;;;17.00;99.90;;;;;;4980581;28;20134;-85
2022/05/23 07:26:37;;;;;;;7.97;4.35;;;17.00;99.90;;;;;;4996482;28;20050;-85
2022/05/23 07:29:03;;;;;;;6.88;3.90;;;17.10;99.90;;;;;;4996624;28;20080;-84
2022/05/23 07:31:35;;;;;;;6.72;4.30;;;17.20;99.90;;;;;;4995496;28;20042;-84
2022/05/23 07:34:00;;;;;;;6.35;3.75;;;17.30;99.90;;;;;;4996492;28;20057;-84
2022/05/23 07:36:26;;;;;;;6.80;4.30;;;17.40;99.90;;;;;;5013850;28;20046;-85
2022/05/23 07:38:52;;;;;;;7.70;3.97;;;17.60;99.90;;;;;;4996370;28;20058;-84
2022/05/23 07:41:18;;;;;;;7.32;3.85;;;17.70;99.90;;;;;;4996260;28;20104;-84
2022/05/23 07:43:43;;;;;;;6.18;4.03;;;17.90;99.90;;;;;;5014138;28;20049;-84
2022/05/23 07:46:13;;;;;;;6.53;4.07;;;18.00;99.90;;;;;;4996123;28;20433;-85
2022/05/23 07:48:56;;;;;;;8.73;4.07;;;18.10;99.90;;;;;;5013945;28;20125;-85
2022/05/23 07:51:29;;;;;;;7.40;4.72;;;18.30;99.90;;;;;;4996547;28;20136;-84
2022/05/23 08:02:10;;;;;;;8.40;4.50;;;18.30;99.90;;;;;;5013589;28;20061;-83
2022/05/23 08:04:36;;;;;;;10.10;4.32;;;18.40;99.90;;;;;;5013690;28;20402;-84
2022/05/23 08:07:01;;;;;;;6.38;3.88;;;18.50;99.90;;;;;;4996087;28;20056;-85
2022/05/23 08:09:27;;;;;;;7.20;4.15;;;18.60;99.90;;;;;;5013767;28;20463;-85
2022/05/23 08:11:53;;;;;;;7.43;4.63;;;18.80;99.90;;;;;;4996103;28;20049;-85
2022/05/23 08:14:19;;;;;;;10.07;5.13;;;19.10;99.90;;;;;;4996095;28;20482;-84
2022/05/23 08:16:45;;;;;;;7.18;4.32;;;19.30;99.90;;;;;;5013513;28;20037;-84
2022/05/23 08:19:11;;;;;;;5.63;3.92;;;19.50;99.90;;;;;;4995919;28;20129;-86
2022/05/23 08:21:44;;;;;;;10.50;4.38;;;19.80;99.90;;;;;;4979508;28;20481;-85
2022/05/23 08:24:10;;;;;;;7.00;4.00;;;20.00;99.90;;;;;;4996151;28;20397;-87
2022/05/23 08:26:35;;;;;;;9.27;4.30;;;20.20;99.90;;;;;;4995896;28;20041;-84
2022/05/23 08:29:01;;;;;;;8.43;4.38;;;20.20;99.90;;;;;;4995882;28;20073;-84
2022/05/23 08:31:27;;;;;;;7.82;4.20;;;20.20;99.90;;;;;;4995776;28;20070;-84
2022/05/23 08:33:53;;;;;;;8.45;3.90;;;20.20;99.90;;;;;;5013510;28;20075;-85
2022/05/23 08:36:18;;;;;;;6.75;4.00;;;20.30;99.90;;;;;;4995617;28;20058;-84
2022/05/23 08:38:44;;;;;;;11.02;4.05;;;20.60;99.90;;;;;;4995945;28;20065;-85
2022/05/23 08:41:16;;;;;;;9.88;4.43;;;20.80;99.90;;;;;;5013475;28;20496;-85
2022/05/23 08:43:47;;;;;;;18.48;5.20;;;21.10;99.90;;;;;;4982069;28;20473;-85
2022/05/23 08:46:28;;;;;;;15.05;4.65;;;21.40;99.90;;;;;;4999213;28;20075;-85
2022/05/23 08:49:19;;;;;;;6.43;3.70;;;21.60;99.90;;;;;;4999116;28;20056;-85
2022/05/23 08:51:54;;;;;;;9.98;4.30;;;21.70;99.90;;;;;;4983301;28;20500;-85
2022/05/23 08:54:36;;;;;;;6.20;3.88;;;21.80;99.90;;;;;;5016603;28;20068;-86
2022/05/23 08:57:04;;;;;;;5.78;3.63;;;22.00;99.90;;;;;;5016774;28;20042;-85
2022/05/23 08:59:43;;;;;;;7.20;3.83;;;22.10;99.90;;;;;;4998691;28;20049;-85
2022/05/23 09:02:13;;;;;;;8.98;4.25;;;22.00;99.90;;;;;;4998788;28;20041;-85
2022/05/23 09:04:57;;;;;;;7.70;3.70;;;22.20;99.90;;;;;;5014894;28;20053;-85
2022/05/23 09:07:44;;;;;;;7.28;3.60;;;22.40;99.90;;;;;;5005633;28;20053;-85
2022/05/23 09:10:22;;;;;;;7.70;4.10;;;22.40;99.90;;;;;;5016293;28;20486;-87
2022/05/23 09:12:51;;;;;;;9.05;3.70;;;22.50;99.90;;;;;;4998858;28;20050;-88
2022/05/23 09:15:17;;;;;;;7.30;3.95;;;22.50;99.90;;;;;;4982692;28;20042;-90
2022/05/23 09:17:45;;;;;;;8.10;3.90;;;22.50;99.90;;;;;;4998767;28;20048;-89
2022/05/23 09:20:21;;;;;;;7.47;4.60;;;22.60;99.90;;;;;;4998893;28;20042;-88
2022/05/23 09:22:54;;;;;;;7.50;3.88;;;22.70;99.90;;;;;;4982179;28;20053;-88
2022/05/23 09:25:24;;;;;;;6.72;4.05;;;22.60;99.90;;;;;;4998281;28;20124;-88
2022/05/23 09:28:33;;;;;;;9.70;4.13;;;22.60;99.90;;;;;;4998490;28;20108;-90
2022/05/23 09:31:30;;;;;;;6.88;4.25;;;22.60;99.90;;;;;;4990967;28;20108;-91
2022/05/23 09:33:57;;;;;;;7.03;4.00;;;22.80;99.90;;;;;;4940248;29;20106;-89
2022/05/23 09:36:37;;;;;;;8.57;4.30;;;22.80;99.90;;;;;;4940045;29;20059;-90
2022/05/23 09:39:07;;;;;;;10.93;4.38;;;22.80;99.90;;;;;;4939549;29;20055;-88
2022/05/23 09:49:52;;;;;;;;;;;22.90;99.90;;;;;;4939742;29;20047;-89
2022/05/23 09:52:31;;;;;;;7.22;3.75;;;23.00;99.90;;;;;;4923397;29;19933;-89
2022/05/23 09:55:02;;;;;;;7.35;3.53;;;23.10;99.90;;;;;;4938185;29;20086;-90
2022/05/23 09:57:37;;;;;;;7.70;3.83;;;23.20;99.90;;;;;;4922968;28;20043;-88
2022/05/23 10:00:09;;;;;;;5.80;3.72;;;23.40;99.90;;;;;;4939189;29;20051;-89
2022/05/23 10:02:50;;;;;;;6.28;4.00;;;23.60;99.90;;;;;;4938717;29;20047;-88
2022/05/23 10:05:46;;;;;;;6.13;3.60;;;23.70;99.90;;;;;;4938986;29;20043;-89
2022/05/23 10:08:13;;;;;;;;;;;23.70;99.90;;;;;;4939195;29;20110;-88
2022/05/23 10:10:53;;;;;;;5.32;3.47;;;23.70;99.90;;;;;;4976795;28;19944;-88
2022/05/23 10:13:30;;;;;;;6.28;4.00;;;23.80;99.90;;;;;;4997983;28;20060;-85
2022/05/23 10:16:11;;;;;;;6.38;3.90;;;23.90;99.90;;;;;;4997538;28;20396;-84
2022/05/23 10:18:51;;;;;;;6.38;3.63;;;24.00;99.90;;;;;;4981607;28;20363;-85
2022/05/23 10:21:43;;;;;;;6.85;3.30;;;24.20;99.90;;;;;;5015051;28;20458;-87
2022/05/23 10:24:18;;;;;;;7.55;3.08;;;24.20;99.90;;;;;;4938644;29;20066;-85
2022/05/23 10:26:57;;;;;;;6.85;3.53;;;24.20;99.90;;;;;;4954441;29;20546;-85
2022/05/23 10:29:28;;;;;;;5.95;3.58;;;24.20;99.90;;;;;;4938686;29;20473;-85
2022/05/23 10:32:03;;;;;;;4.05;3.08;;;24.10;99.90;;;;;;4954211;28;20047;-85
2022/05/23 10:34:49;;;;;;;5.57;3.22;;;24.20;99.90;;;;;;4922749;29;20171;-85
2022/05/23 10:37:20;;;;;;;5.00;3.13;;;24.30;99.90;;;;;;4938319;28;20127;-84
2022/05/23 10:42:47;;;;;;;5.57;3.25;;;24.40;99.90;;;;;;4938246;29;20054;-85
2022/05/23 10:45:36;;;;;;;6.68;4.03;;;24.50;99.90;;;;;;4938203;29;20183;-87
2022/05/23 10:48:10;;;;;;;4.95;3.03;;;24.90;99.90;;;;;;4938002;28;20067;-87
2022/05/23 10:51:05;;;;;;;5.32;3.20;;;25.40;99.90;;;;;;4937967;29;20047;-86
2022/05/23 10:54:01;;;;;;;5.32;3.17;;;25.30;99.90;;;;;;4938324;29;20079;-85
2022/05/23 10:56:38;;;;;;;4.85;2.83;;;25.00;99.90;;;;;;4954080;28;20460;-86
2022/05/23 10:59:08;;;;;;;5.47;3.30;;;24.90;99.90;;;;;;4954540;28;20062;-85
2022/05/23 11:01:52;;;;;;;5.88;3.00;;;25.30;99.90;;;;;;4979076;28;20057;-85
2022/05/23 11:04:32;;;;;;;5.60;2.53;;;25.60;99.90;;;;;;5014450;28;20081;-85
2022/05/23 11:06:58;;;;;;;5.75;2.30;;;25.90;99.90;;;;;;4980283;28;20046;-86
2022/05/23 11:09:29;;;;;;;6.03;2.58;;;25.90;99.90;;;;;;4980406;28;20057;-85
2022/05/23 11:12:14;;;;;;;3.53;2.05;;;25.90;99.90;;;;;;5014264;28;20143;-88
2022/05/23 11:15:08;;;;;;;6.90;2.83;;;25.90;99.90;;;;;;4996802;28;20042;-85
2022/05/23 11:18:09;;;;;;;5.03;2.30;;;25.90;99.90;;;;;;5003386;28;20188;-85
2022/05/23 11:20:37;;;;;;;4.22;2.28;;;26.00;99.90;;;;;;4937800;29;20055;-86
2022/05/23 11:23:20;;;;;;;4.45;2.50;;;25.90;99.90;;;;;;4953643;29;20051;-85
2022/05/23 11:25:53;;;;;;;3.60;2.30;;;25.70;99.90;;;;;;4964831;29;20066;-87
2022/05/23 11:34:37;;;;;;;5.32;2.70;;;25.10;99.90;;;;;;4938642;29;20114;-86
2022/05/23 11:37:42;;;;;;;3.78;2.40;;;24.90;99.90;;;;;;4922018;29;20055;-85
2022/05/23 11:39:57;;;;;;;4.72;2.35;;;24.70;99.90;;;;;;4953465;28;20043;-85
2022/05/23 11:42:42;;;;;;;5.63;2.50;;;24.40;99.90;;;;;;4938590;29;20051;-84
2022/05/23 11:47:56;;;;;;;4.38;2.00;;;24.50;99.90;;;;;;4950971;29;20206;-89
2022/05/23 11:50:26;;;;;;;6.03;2.35;;;24.70;99.90;;;;;;4947681;29;20553;-85
2022/05/23 11:53:10;;;;;;;3.70;1.92;;;24.90;99.90;;;;;;4953557;28;20055;-85
2022/05/23 11:55:51;;;;;;;5.55;1.92;;;25.00;99.90;;;;;;4937258;29;20485;-84
2022/05/23 11:58:22;;;;;;;5.35;1.90;;;25.00;99.90;;;;;;4996531;28;20046;-84
2022/05/23 12:01:16;;;;;;;4.65;1.83;;;24.90;99.90;;;;;;4996162;28;20085;-85
2022/05/23 12:03:47;;;;;;;5.75;2.60;;;24.80;99.90;;;;;;5013405;28;20050;-85
2022/05/23 12:06:17;;;;;;;4.50;2.53;;;24.70;99.90;;;;;;5013724;28;20042;-85
2022/05/23 12:09:06;;;;;;;4.22;2.30;;;24.50;99.90;;;;;;4995824;28;20108;-86
2022/05/23 12:11:41;;;;;;;3.70;2.38;;;24.30;99.90;;;;;;5013686;28;20387;-85
2022/05/23 12:14:20;;;;;;;3.55;1.92;;;24.30;99.90;;;;;;5013579;28;20125;-85
2022/05/23 12:16:57;;;;;;;3.50;2.00;;;24.10;99.90;;;;;;4995779;28;20123;-84
2022/05/23 12:19:41;;;;;;;5.63;2.60;;;24.00;99.90;;;;;;4983369;28;20053;-84
2022/05/23 12:22:29;;;;;;;3.72;2.58;;;23.90;99.90;;;;;;4999868;28;20056;-84
2022/05/23 12:25:20;;;;;;;4.07;2.40;;;23.80;99.90;;;;;;4999467;28;20046;-91
2022/05/23 12:27:45;;;;;;;5.60;2.10;;;23.70;99.90;;;;;;4999785;28;20592;-84
2022/05/23 12:30:17;;;;;;;4.65;2.58;;;23.60;99.90;;;;;;4999862;28;20054;-86
2022/05/23 12:33:01;;;;;;;4.60;2.80;;;23.40;99.90;;;;;;4983055;28;20053;-87
2022/05/23 12:35:39;;;;;;;6.05;2.90;;;23.20;99.90;;;;;;4999124;28;20042;-86
2022/05/23 12:38:36;;;;;;;7.47;3.40;;;22.80;99.90;;;;;;5000150;28;20046;-88
2022/05/23 12:41:17;;;;;;;6.90;3.60;;;22.50;99.90;;;;;;4999607;28;20049;-89
2022/05/23 12:43:54;;;;;;;8.68;4.22;;;;;;;;;;4999600;28;20049;-87
2022/05/23 12:46:35;;;;;;;5.82;3.75;;;;;;;;;;4999256;28;20046;-89
2022/05/23 12:49:07;;;;;;;9.60;4.30;;;;;;;;;;4999277;28;20045;-88
2022/05/23 12:51:39;;;;;;;8.27;4.93;;;;;;;;;;4999457;28;20052;-88
2022/05/23 12:54:24;;;;;;;7.07;4.50;;;;;;;;;;4982916;28;20049;-88
2022/05/23 12:56:56;;;;;;;6.25;4.68;;;;;;;;;;4998939;28;20037;-88
2022/05/23 12:59:41;;;;;;;8.40;5.53;;;;;;;;;;4999338;28;20049;-88
2022/05/23 13:02:14;;;;;;;8.13;5.60;;;;;;;;;;4982471;28;20046;-88
2022/05/23 13:05:07;;;;;;;12.98;5.60;;;;;;;;;;4982813;28;20037;-88
2022/05/23 13:07:45;;;;;;;9.27;4.90;;;;;;;;;;4940097;29;20401;-88
2022/05/23 13:10:17;;;;;;;7.75;5.40;;;;;;;;;;4955889;28;20603;-88
2022/05/23 13:12:48;;;;;;;5.82;4.63;;;;;;;;;;4939832;29;20059;-88
2022/05/23 13:15:22;;;;;;;7.00;4.95;;;;;;;;;;4940023;29;20043;-88
2022/05/23 13:17:49;;;;;;;6.28;4.72;;;;;;;;;;4939629;29;20522;-88
2022/05/23 13:23:01;;;;;;;7.57;5.10;;;;;;;;;;4939787;29;20061;-88
2022/05/23 13:25:32;;;;;;;7.55;5.75;;;;;;;;;;4955602;28;20047;-88
2022/05/23 13:27:59;;;;;;;7.38;5.10;;;;;;;;;;4939813;29;20109;-88
2022/05/23 13:30:28;;;;;;;9.18;5.43;;;;;;;;;;4939651;29;20047;-88
2022/05/23 13:33:09;;;;;;;9.38;5.95;;;;;;;;;;4939938;29;20539;-88
2022/05/23 13:35:36;;;;;;;8.40;5.47;;;;;;;;;;4939657;29;20055;-87
2022/05/23 13:38:17;;;;;;;8.35;5.25;;;;;;;;;;4939970;28;20105;-91
2022/05/23 13:40:45;;;;;;;9.55;5.43;;;;;;;;;;4939391;29;20043;-86
2022/05/23 13:43:20;;;;;;;7.90;6.00;;;;;;;;;;4940631;28;20047;-86
2022/05/23 13:45:49;;;;;;;6.90;5.72;;;;;;;;;;4999385;28;20037;-86
2022/05/23 13:48:22;;;;;;;8.90;5.90;;;;;;;;;;5020929;28;20034;-86
2022/05/23 13:50:57;;;;;;;8.57;6.53;;;;;;;;;;5001287;28;20054;-86
2022/05/23 13:53:23;;;;;;;;;;;;;;;;;;4995490;28;20112;-86
2022/05/23 13:55:50;;;;;;;9.25;7.22;;;;;;;;;;4994788;28;19922;-86
2022/05/23 13:58:19;;;;;;;8.75;7.53;;;;;;;;;;4994726;28;20549;-86
2022/05/23 14:00:56;;;;;;;10.27;7.57;;;;;;;;;;4994777;28;20047;-86
2022/05/23 14:03:29;;;;;;;10.63;7.85;;;;;;;;;;4994309;28;20058;-86
2022/05/23 14:05:56;;;;;;;9.80;7.32;;;;;;;;;;4994662;28;20042;-86
2022/05/23 14:08:33;;;;;;;9.75;7.70;;;;;;;;;;4995789;28;20054;-86
2022/05/23 14:11:00;;;;;;;10.35;7.70;;;;;;;;;;4994660;28;20050;-86
2022/05/23 14:13:29;;;;;;;8.13;6.30;;;;;;;;;;4994763;28;20068;-86
2022/05/23 14:15:55;;;;;;;9.52;6.63;;;;;;;;;;4977916;28;20054;-86
2022/05/23 14:18:29;;;;;;;7.63;6.03;;;;;;;;;;4994434;28;20390;-85
2022/05/23 14:20:55;;;;;;;9.00;6.53;;;;;;;;;;4994241;28;20481;-85